Time;durP1;ratioP1;P1;durP2;ratioP2;P2;SDS_P1;SDS_P2;PMS_P1;PMS_P2;Temp;Humidity;BMP_temperature;BMP_pressure;BME280_temperature;BME280_humidity;BME280_pressure;Samples;Min_cycle;Max_cycle;Signal;HPM_P1;HPM_P2
2023/06/23 00:01:00;;;;;;;16.33;8.75;;;16.90;98.00;;;;;;5003209;28;20034;-69
2023/06/23 00:03:26;;;;;;;12.07;8.80;;;16.90;97.90;;;;;;5005672;28;20754;-69
2023/06/23 00:05:52;;;;;;;13.43;8.30;;;16.90;98.00;;;;;;5007068;28;20030;-69
2023/06/23 00:08:17;;;;;;;13.20;7.95;;;16.90;97.90;;;;;;5003909;28;20434;-69
2023/06/23 00:10:48;;;;;;;14.18;8.43;;;16.90;98.00;;;;;;5014222;28;20494;-69
2023/06/23 00:13:13;;;;;;;12.40;7.82;;;16.90;98.10;;;;;;5012771;28;20175;-68
2023/06/23 00:15:39;;;;;;;12.43;8.32;;;16.90;98.00;;;;;;5016276;28;20058;-70
2023/06/23 00:18:04;;;;;;;9.77;7.35;;;16.90;98.20;;;;;;5013456;28;20110;-69
2023/06/23 00:20:31;;;;;;;11.95;6.85;;;16.90;98.20;;;;;;5010337;28;20029;-69
2023/06/23 00:22:56;;;;;;;12.00;6.85;;;16.90;98.20;;;;;;5010123;28;20057;-69
2023/06/23 00:25:23;;;;;;;12.02;7.15;;;16.90;98.10;;;;;;4998741;28;20038;-68
2023/06/23 00:27:48;;;;;;;11.10;7.20;;;17.00;98.00;;;;;;5013338;28;20037;-69
2023/06/23 00:30:14;;;;;;;10.05;6.85;;;16.90;97.80;;;;;;5010714;28;20419;-69
2023/06/23 00:32:41;;;;;;;10.43;6.60;;;17.00;98.00;;;;;;5014688;28;20119;-68
2023/06/23 00:35:08;;;;;;;10.95;6.68;;;16.90;98.00;;;;;;5004493;28;20084;-69
2023/06/23 00:37:37;;;;;;;11.65;6.60;;;16.90;98.00;;;;;;5021745;28;20160;-70
2023/06/23 00:40:04;;;;;;;9.00;7.03;;;17.00;98.10;;;;;;5014788;28;20018;-69
2023/06/23 00:42:31;;;;;;;10.48;6.82;;;16.90;97.90;;;;;;5007965;28;20296;-69
2023/06/23 00:44:57;;;;;;;9.15;6.65;;;16.90;97.80;;;;;;5005017;28;20033;-69
2023/06/23 00:47:24;;;;;;;10.45;6.90;;;17.00;97.80;;;;;;5005202;28;20057;-69
2023/06/23 00:49:50;;;;;;;9.55;7.18;;;17.00;97.90;;;;;;5004654;28;20026;-68
2023/06/23 00:52:16;;;;;;;12.98;7.40;;;17.00;97.90;;;;;;5010256;28;20220;-70
2023/06/23 00:54:41;;;;;;;10.52;8.02;;;17.00;98.00;;;;;;5004678;28;20038;-69
2023/06/23 00:57:07;;;;;;;10.73;6.80;;;17.00;98.00;;;;;;5007417;28;20111;-70
2023/06/23 00:59:32;;;;;;;11.57;8.27;;;17.00;97.90;;;;;;5005807;28;20672;-69
2023/06/23 01:02:00;;;;;;;10.82;7.43;;;17.00;97.90;;;;;;5010913;28;20063;-69
2023/06/23 01:04:33;;;;;;;11.60;7.90;;;17.00;98.00;;;;;;5003609;28;20136;-69
2023/06/23 01:07:16;;;;;;;12.60;8.05;;;17.10;98.00;;;;;;4997611;28;20376;-69
2023/06/23 01:09:57;;;;;;;12.98;8.13;;;17.00;97.80;;;;;;5003835;28;20328;-70
2023/06/23 01:12:31;;;;;;;10.82;8.38;;;17.00;98.00;;;;;;5006515;28;20025;-69
2023/06/23 01:15:24;;;;;;;12.50;8.90;;;17.00;98.10;;;;;;5007604;28;20040;-69
2023/06/23 01:18:27;;;;;;;12.82;8.55;;;17.00;98.00;;;;;;5004734;28;20026;-69
2023/06/23 01:20:57;;;;;;;14.50;8.20;;;17.00;98.00;;;;;;5008749;28;20108;-69
2023/06/23 01:23:47;;;;;;;12.77;8.20;;;17.00;98.10;;;;;;4995818;28;20030;-69
2023/06/23 01:26:44;;;;;;;15.05;9.20;;;17.00;98.10;;;;;;4998299;28;20353;-69
2023/06/23 01:29:14;;;;;;;10.43;8.60;;;17.00;98.20;;;;;;5003111;28;20395;-69
2023/06/23 01:32:08;;;;;;;10.82;9.10;;;17.00;98.30;;;;;;5003361;28;20033;-69
2023/06/23 01:34:45;;;;;;;12.60;8.82;;;17.10;98.30;;;;;;5001002;28;20053;-71
2023/06/23 01:37:19;;;;;;;13.35;8.85;;;17.10;98.30;;;;;;5001795;28;20022;-69
2023/06/23 01:39:51;;;;;;;11.55;9.52;;;17.10;98.40;;;;;;5004042;28;20026;-69
2023/06/23 01:42:19;;;;;;;12.35;9.02;;;17.10;98.50;;;;;;5005753;28;20038;-70
2023/06/23 01:44:49;;;;;;;12.43;8.90;;;17.10;98.60;;;;;;5002989;28;20366;-69
2023/06/23 01:47:18;;;;;;;11.13;8.68;;;17.10;98.70;;;;;;5008086;28;20046;-69
2023/06/23 01:49:46;;;;;;;10.85;8.38;;;17.10;98.80;;;;;;5000817;28;20037;-71
2023/06/23 01:52:13;;;;;;;11.68;7.13;;;17.10;98.90;;;;;;5002875;28;20032;-69
2023/06/23 01:54:40;;;;;;;8.02;6.50;;;17.00;98.80;;;;;;5008298;28;20049;-69
2023/06/23 01:57:08;;;;;;;7.78;6.20;;;17.00;98.90;;;;;;5004580;28;20123;-71
2023/06/23 01:59:35;;;;;;;9.70;5.90;;;17.00;98.90;;;;;;5007589;28;20109;-71
2023/06/23 02:02:02;;;;;;;13.90;6.55;;;17.00;99.00;;;;;;4994569;28;20371;-69
2023/06/23 02:04:29;;;;;;;11.98;6.10;;;17.00;99.10;;;;;;5006604;28;20478;-69
2023/06/23 02:06:56;;;;;;;9.65;5.72;;;17.00;99.20;;;;;;5001977;28;20086;-69
2023/06/23 02:09:25;;;;;;;8.90;4.95;;;17.00;99.30;;;;;;5006989;28;20094;-73
2023/06/23 02:11:51;;;;;;;9.95;4.72;;;16.80;99.20;;;;;;5019021;28;20108;-69
2023/06/23 02:14:19;;;;;;;6.57;5.35;;;16.80;99.30;;;;;;5021499;28;20433;-70
2023/06/23 02:16:46;;;;;;;6.53;4.38;;;16.90;99.50;;;;;;5007599;28;20407;-69
2023/06/23 02:19:13;;;;;;;8.00;5.05;;;16.80;99.40;;;;;;5008570;28;20072;-69
2023/06/23 02:21:40;;;;;;;8.80;4.28;;;16.80;99.50;;;;;;5008828;28;20092;-69
2023/06/23 02:24:07;;;;;;;9.00;4.60;;;16.70;99.40;;;;;;5008391;28;20065;-69
2023/06/23 02:26:37;;;;;;;7.90;4.50;;;16.60;99.50;;;;;;5011694;28;20026;-70
2023/06/23 02:29:06;;;;;;;7.57;4.45;;;16.60;99.50;;;;;;5015863;28;20116;-71
2023/06/23 02:31:32;;;;;;;7.60;4.38;;;16.50;99.50;;;;;;5007802;28;20458;-69
2023/06/23 02:33:58;;;;;;;14.10;5.80;;;16.50;99.60;;;;;;5011847;28;20029;-70
2023/06/23 02:36:29;;;;;;;8.45;5.28;;;16.50;99.60;;;;;;5009394;28;20117;-69
2023/06/23 02:38:57;;;;;;;13.85;5.32;;;16.40;99.60;;;;;;5011377;28;20583;-70
2023/06/23 02:41:26;;;;;;;9.45;5.55;;;16.40;99.60;;;;;;5007791;28;20037;-69
2023/06/23 02:43:56;;;;;;;7.88;5.55;;;16.40;99.60;;;;;;5007757;28;20109;-69
2023/06/23 02:46:27;;;;;;;9.45;6.07;;;16.30;99.60;;;;;;5004778;28;20034;-70
2023/06/23 02:48:58;;;;;;;8.38;5.93;;;16.30;99.70;;;;;;5024409;28;20318;-69
2023/06/23 02:51:26;;;;;;;;;;;16.30;99.70;;;;;;5007248;28;20086;-70
2023/06/23 02:54:09;;;;;;;8.60;5.93;;;16.30;99.70;;;;;;5003104;28;20025;-70
2023/06/23 02:56:42;;;;;;;9.55;6.43;;;16.30;99.70;;;;;;5003654;28;20026;-70
2023/06/23 02:59:12;;;;;;;10.73;6.00;;;16.30;99.70;;;;;;5007962;28;20056;-70
2023/06/23 03:01:41;;;;;;;12.95;6.40;;;16.30;99.70;;;;;;5010138;28;20045;-69
2023/06/23 03:04:07;;;;;;;11.93;6.15;;;16.30;99.80;;;;;;5006749;28;20082;-71
2023/06/23 03:06:36;;;;;;;7.88;6.05;;;16.20;99.70;;;;;;5004800;28;20113;-71
2023/06/23 03:09:02;;;;;;;9.23;6.55;;;16.30;99.80;;;;;;5016762;28;21416;-70
2023/06/23 03:11:30;;;;;;;9.43;6.65;;;16.20;99.70;;;;;;5013372;28;20034;-70
2023/06/23 03:13:57;;;;;;;10.15;6.45;;;16.20;99.90;;;;;;5009954;28;20115;-70
2023/06/23 03:16:30;;;;;;;11.07;6.78;;;16.30;99.90;;;;;;5007021;28;20105;-70
2023/06/23 03:19:14;;;;;;;8.60;6.85;;;16.30;99.80;;;;;;5012737;28;20509;-70
2023/06/23 03:21:40;;;;;;;10.68;7.75;;;16.30;99.90;;;;;;5003201;28;20120;-70
2023/06/23 03:24:12;;;;;;;10.32;8.07;;;16.30;99.90;;;;;;5008818;28;20422;-71
2023/06/23 03:26:41;;;;;;;14.48;8.25;;;16.30;99.90;;;;;;5001948;28;20119;-70
2023/06/23 03:29:08;;;;;;;14.18;9.52;;;16.40;99.90;;;;;;5012970;28;20034;-73
2023/06/23 03:31:37;;;;;;;16.42;11.07;;;16.30;99.90;;;;;;5007693;28;20441;-69
2023/06/23 03:34:03;;;;;;;15.63;11.82;;;16.40;99.90;;;;;;5003713;28;20034;-70
2023/06/23 03:36:29;;;;;;;13.88;10.93;;;16.40;99.90;;;;;;5006826;28;20474;-70
2023/06/23 03:39:10;;;;;;;15.50;11.57;;;16.40;99.90;;;;;;5004212;28;20018;-70
2023/06/23 03:41:37;;;;;;;18.50;11.85;;;16.40;99.90;;;;;;4998121;28;20052;-72
2023/06/23 03:44:26;;;;;;;19.67;12.75;;;16.50;99.90;;;;;;5008343;28;20056;-70
2023/06/23 03:46:57;;;;;;;19.27;13.55;;;16.40;99.90;;;;;;5003237;28;20089;-69
2023/06/23 03:49:42;;;;;;;25.40;14.13;;;16.50;99.90;;;;;;5014312;28;20030;-70
2023/06/23 03:52:10;;;;;;;19.75;13.98;;;16.40;99.90;;;;;;5006610;28;20048;-70
2023/06/23 03:54:40;;;;;;;20.13;14.57;;;16.50;99.90;;;;;;5005895;28;20129;-72
2023/06/23 03:57:10;;;;;;;21.02;15.00;;;16.50;99.90;;;;;;5001279;28;20060;-72
2023/06/23 03:59:38;;;;;;;21.35;15.10;;;16.50;99.90;;;;;;5009738;28;20057;-73
2023/06/23 04:02:05;;;;;;;21.88;14.45;;;16.50;99.90;;;;;;5005569;28;20136;-71
2023/06/23 04:04:34;;;;;;;20.58;13.55;;;16.50;99.90;;;;;;5006243;28;20029;-74
2023/06/23 04:07:00;;;;;;;17.65;12.70;;;16.50;99.90;;;;;;5023283;28;20053;-71
2023/06/23 04:09:28;;;;;;;17.40;12.32;;;16.50;99.80;;;;;;5008804;28;20044;-70
2023/06/23 04:11:55;;;;;;;14.23;11.52;;;16.50;99.90;;;;;;5005958;28;20053;-73
2023/06/23 04:14:24;;;;;;;15.75;11.25;;;16.60;99.90;;;;;;5014222;28;20454;-70
2023/06/23 04:16:51;;;;;;;14.38;11.02;;;16.60;99.90;;;;;;5007597;28;20281;-70
2023/06/23 04:19:19;;;;;;;15.35;10.20;;;16.60;99.80;;;;;;5013893;28;20434;-70
2023/06/23 04:21:46;;;;;;;14.25;10.85;;;16.60;99.80;;;;;;5017159;28;20041;-69
2023/06/23 04:24:13;;;;;;;14.45;9.90;;;16.50;99.80;;;;;;5020474;28;20033;-69
2023/06/23 04:26:41;;;;;;;13.88;9.43;;;16.50;99.70;;;;;;5006995;28;20022;-70
2023/06/23 04:29:10;;;;;;;14.32;9.77;;;16.60;99.80;;;;;;5007599;28;20033;-67
2023/06/23 04:31:38;;;;;;;13.50;8.98;;;16.50;99.70;;;;;;5001913;28;20050;-65
2023/06/23 04:34:03;;;;;;;11.88;9.40;;;16.50;99.50;;;;;;5006254;28;20026;-65
2023/06/23 04:36:47;;;;;;;10.82;8.73;;;16.40;99.50;;;;;;5005202;28;20111;-66
2023/06/23 04:39:27;;;;;;;16.00;10.00;;;16.40;99.60;;;;;;5001553;28;20068;-65
2023/06/23 04:41:56;;;;;;;13.18;9.63;;;16.40;99.60;;;;;;5004475;28;20025;-65
2023/06/23 04:44:26;;;;;;;13.18;10.73;;;16.40;99.70;;;;;;5006498;28;20288;-65
2023/06/23 04:46:54;;;;;;;14.75;10.70;;;16.40;99.70;;;;;;5004629;28;20116;-65
2023/06/23 04:49:22;;;;;;;14.68;11.95;;;16.40;99.50;;;;;;5001917;28;20431;-65
2023/06/23 04:51:52;;;;;;;15.73;13.00;;;16.40;99.60;;;;;;5008694;28;20037;-65
2023/06/23 04:54:30;;;;;;;18.83;13.73;;;16.30;99.50;;;;;;5007359;28;20029;-68
2023/06/23 04:57:02;;;;;;;19.98;13.27;;;16.40;99.60;;;;;;5003023;28;20030;-64
2023/06/23 04:59:33;;;;;;;17.50;12.70;;;16.40;99.60;;;;;;5003677;28;20105;-64
2023/06/23 05:02:01;;;;;;;15.93;11.48;;;16.20;99.50;;;;;;5004755;28;20099;-65
2023/06/23 05:04:29;;;;;;;19.52;12.40;;;16.20;99.40;;;;;;5003370;28;20030;-65
2023/06/23 05:06:56;;;;;;;18.45;11.55;;;16.20;99.50;;;;;;5003462;28;20386;-64
2023/06/23 05:09:22;;;;;;;17.58;11.45;;;16.20;99.50;;;;;;5005286;28;20419;-66
2023/06/23 05:11:50;;;;;;;16.05;11.15;;;16.10;99.50;;;;;;5015898;28;20053;-65
2023/06/23 05:14:18;;;;;;;14.65;10.52;;;16.10;99.40;;;;;;5014421;28;20103;-65
2023/06/23 05:16:46;;;;;;;17.55;10.43;;;16.00;99.30;;;;;;5007310;28;20445;-69
2023/06/23 05:19:13;;;;;;;15.07;10.43;;;16.10;99.50;;;;;;5007801;28;20038;-64
2023/06/23 05:21:40;;;;;;;17.58;10.35;;;16.00;99.30;;;;;;5004941;28;20038;-64
2023/06/23 05:24:09;;;;;;;13.65;9.40;;;16.00;99.40;;;;;;5009469;28;20068;-66
2023/06/23 05:26:35;;;;;;;13.75;9.18;;;16.00;99.40;;;;;;5008630;28;20085;-65
2023/06/23 05:29:07;;;;;;;17.90;10.00;;;16.00;99.50;;;;;;5013165;28;20434;-65
2023/06/23 05:31:37;;;;;;;13.40;8.85;;;16.10;99.60;;;;;;5005064;28;20112;-64
2023/06/23 05:34:07;;;;;;;17.02;10.00;;;16.10;99.50;;;;;;5016339;28;20271;-65
2023/06/23 05:36:34;;;;;;;16.80;10.05;;;16.10;99.60;;;;;;5002750;28;20343;-66
2023/06/23 05:39:02;;;;;;;14.50;9.15;;;16.10;99.50;;;;;;5006611;28;20419;-64
2023/06/23 05:41:28;;;;;;;14.80;9.40;;;16.10;99.40;;;;;;5006586;28;20091;-65
2023/06/23 05:43:53;;;;;;;14.60;9.50;;;16.10;99.40;;;;;;5006699;28;20078;-65
2023/06/23 05:46:23;;;;;;;14.95;9.88;;;16.10;99.20;;;;;;5006836;28;20061;-64
2023/06/23 05:48:53;;;;;;;12.77;9.70;;;16.10;99.40;;;;;;5001914;28;20023;-67
2023/06/23 05:51:25;;;;;;;16.40;10.35;;;16.30;99.50;;;;;;5015377;28;20777;-67
2023/06/23 05:53:54;;;;;;;15.95;10.20;;;16.30;99.60;;;;;;5010079;28;20112;-64
2023/06/23 05:56:29;;;;;;;14.05;9.70;;;16.40;99.50;;;;;;5015372;28;20076;-65
2023/06/23 05:58:57;;;;;;;13.05;9.60;;;16.40;99.50;;;;;;5006411;28;20080;-65
2023/06/23 06:01:24;;;;;;;14.95;9.18;;;16.50;99.40;;;;;;5014392;28;20416;-65
2023/06/23 06:04:09;;;;;;;12.07;8.93;;;16.40;99.20;;;;;;5008032;28;20025;-64
2023/06/23 06:06:37;;;;;;;11.85;8.07;;;16.40;99.30;;;;;;5002320;28;20034;-65
2023/06/23 06:09:07;;;;;;;13.82;9.02;;;16.50;99.20;;;;;;5007880;28;20037;-64
2023/06/23 06:11:35;;;;;;;18.38;9.32;;;16.60;99.30;;;;;;5011312;28;20026;-64
2023/06/23 06:14:02;;;;;;;14.00;8.68;;;16.60;99.40;;;;;;5012780;28;20045;-68
2023/06/23 06:16:28;;;;;;;12.32;8.27;;;16.60;99.00;;;;;;5016334;28;20137;-65
2023/06/23 06:18:55;;;;;;;10.63;7.85;;;16.70;98.80;;;;;;5014436;28;20052;-65
2023/06/23 06:21:22;;;;;;;12.95;8.25;;;16.80;99.00;;;;;;5006789;28;20033;-66
2023/06/23 06:23:49;;;;;;;11.27;7.78;;;16.90;99.10;;;;;;5010420;28;20120;-65
2023/06/23 06:26:18;;;;;;;13.45;7.82;;;17.00;99.00;;;;;;5008947;28;20056;-65
2023/06/23 06:28:46;;;;;;;10.98;6.95;;;17.00;98.90;;;;;;5013787;28;20411;-69
2023/06/23 06:31:12;;;;;;;10.73;6.25;;;16.80;98.60;;;;;;5015360;28;20017;-65
2023/06/23 06:33:41;;;;;;;9.90;6.50;;;16.80;98.60;;;;;;5010758;28;20373;-65
2023/06/23 06:36:08;;;;;;;9.23;6.10;;;16.90;98.70;;;;;;5003075;28;20061;-68
2023/06/23 06:38:37;;;;;;;8.13;5.93;;;16.90;98.50;;;;;;4996459;28;20041;-65
2023/06/23 06:41:07;;;;;;;9.88;6.22;;;16.90;98.50;;;;;;5001420;28;20030;-65
2023/06/23 06:43:33;;;;;;;9.10;5.55;;;16.90;98.20;;;;;;5024005;28;20066;-65
2023/06/23 06:46:00;;;;;;;11.48;6.00;;;16.90;98.20;;;;;;5003398;28;20033;-66
2023/06/23 06:48:27;;;;;;;9.40;5.68;;;17.00;98.10;;;;;;5010069;28;20070;-68
2023/06/23 06:50:54;;;;;;;8.93;5.60;;;17.00;98.10;;;;;;5000508;28;20038;-65
2023/06/23 06:53:20;;;;;;;9.52;5.93;;;17.00;98.30;;;;;;5002296;28;20033;-68
2023/06/23 06:55:46;;;;;;;9.50;5.97;;;17.00;98.20;;;;;;5020299;28;20038;-68
2023/06/23 06:58:11;;;;;;;10.50;5.90;;;17.00;98.30;;;;;;5010655;28;20029;-65
2023/06/23 07:00:37;;;;;;;10.93;6.15;;;17.00;98.20;;;;;;5010980;28;20143;-65
2023/06/23 07:03:04;;;;;;;11.82;6.38;;;17.10;98.30;;;;;;5014599;28;20429;-65
2023/06/23 07:05:30;;;;;;;11.00;6.75;;;17.00;98.20;;;;;;5005175;28;20069;-65
2023/06/23 07:07:55;;;;;;;9.95;6.40;;;17.10;98.20;;;;;;5002268;28;20482;-72
2023/06/23 07:10:21;;;;;;;10.13;6.35;;;17.10;98.20;;;;;;5004361;28;20022;-67
2023/06/23 07:12:46;;;;;;;11.88;6.38;;;17.20;98.20;;;;;;5023290;28;20101;-66
2023/06/23 07:15:12;;;;;;;10.50;7.93;;;17.20;98.50;;;;;;5016909;28;20117;-65
2023/06/23 07:17:38;;;;;;;14.27;6.78;;;17.10;98.20;;;;;;5014403;28;20401;-65
2023/06/23 07:20:04;;;;;;;12.52;8.07;;;17.30;98.50;;;;;;5028295;28;20036;-65
2023/06/23 07:22:30;;;;;;;11.15;7.65;;;17.30;98.30;;;;;;5016946;28;20088;-65
2023/06/23 07:24:55;;;;;;;10.82;7.78;;;17.20;98.20;;;;;;5009787;28;20042;-70
2023/06/23 07:27:21;;;;;;;11.98;7.72;;;17.20;98.30;;;;;;5013599;28;20066;-66
2023/06/23 07:29:47;;;;;;;14.95;8.85;;;17.20;98.40;;;;;;5006026;28;20439;-68
2023/06/23 07:32:14;;;;;;;13.65;9.18;;;17.20;98.40;;;;;;5009095;28;20059;-65
2023/06/23 07:34:40;;;;;;;13.75;9.10;;;17.30;98.60;;;;;;5013838;28;20042;-70
2023/06/23 07:37:08;;;;;;;17.27;9.30;;;17.30;98.60;;;;;;5020514;28;20029;-66
2023/06/23 07:39:35;;;;;;;11.73;9.40;;;17.30;98.60;;;;;;5018931;28;20028;-67
2023/06/23 07:42:00;;;;;;;16.98;10.20;;;17.30;98.70;;;;;;5015273;28;20030;-65
2023/06/23 07:44:26;;;;;;;21.17;10.60;;;17.40;98.90;;;;;;5012598;28;20114;-66
2023/06/23 07:46:51;;;;;;;15.48;10.93;;;17.40;98.90;;;;;;5008162;28;20133;-66
2023/06/23 07:49:17;;;;;;;16.88;11.20;;;17.40;98.90;;;;;;5013742;28;20136;-65
2023/06/23 07:51:42;;;;;;;15.30;11.27;;;17.40;99.00;;;;;;5012923;28;20064;-65
2023/06/23 07:54:08;;;;;;;17.25;10.20;;;17.40;98.80;;;;;;5011620;28;20175;-65
2023/06/23 07:56:34;;;;;;;17.55;10.68;;;17.50;98.90;;;;;;5013892;28;20391;-66
2023/06/23 07:58:59;;;;;;;15.00;11.48;;;17.50;98.90;;;;;;5019657;28;20342;-64
2023/06/23 08:01:25;;;;;;;12.43;10.63;;;17.50;98.80;;;;;;5015320;28;20049;-65
2023/06/23 08:03:50;;;;;;;16.25;11.55;;;17.50;98.80;;;;;;5012662;28;20347;-64
2023/06/23 08:06:23;;;;;;;18.67;12.05;;;17.60;98.80;;;;;;5004749;28;20045;-69
2023/06/23 08:08:49;;;;;;;16.00;12.73;;;17.50;98.70;;;;;;5015795;28;20113;-65
2023/06/23 08:11:14;;;;;;;18.77;11.95;;;17.70;98.80;;;;;;5009536;28;20014;-65
2023/06/23 08:13:40;;;;;;;16.80;12.70;;;17.60;98.70;;;;;;5008022;28;20036;-65
2023/06/23 08:16:05;;;;;;;17.40;12.13;;;17.80;98.90;;;;;;5008750;28;20030;-65
2023/06/23 08:18:31;;;;;;;17.65;12.10;;;17.80;98.80;;;;;;5002291;28;20095;-65
2023/06/23 08:20:56;;;;;;;18.13;12.20;;;17.80;98.80;;;;;;5002515;28;20029;-66
2023/06/23 08:23:22;;;;;;;15.82;12.45;;;17.90;98.70;;;;;;5023298;28;20422;-66
2023/06/23 08:25:47;;;;;;;14.23;10.98;;;17.90;98.30;;;;;;5007748;28;20129;-66
2023/06/23 08:28:13;;;;;;;16.73;12.13;;;18.00;98.40;;;;;;5009821;28;20105;-64
2023/06/23 08:30:38;;;;;;;18.77;12.48;;;18.00;98.40;;;;;;5008753;28;20030;-65
2023/06/23 08:33:04;;;;;;;19.52;12.82;;;18.00;98.40;;;;;;5009469;28;20056;-68
2023/06/23 08:35:29;;;;;;;18.88;12.85;;;18.00;98.60;;;;;;5009422;28;20052;-65
2023/06/23 08:37:55;;;;;;;21.33;13.90;;;17.90;98.60;;;;;;4998960;28;20026;-68
2023/06/23 08:40:20;;;;;;;17.90;13.50;;;18.00;98.70;;;;;;5009616;28;20034;-69
2023/06/23 08:42:46;;;;;;;18.30;13.80;;;18.00;98.60;;;;;;5012644;28;20037;-67
2023/06/23 08:45:15;;;;;;;19.10;14.50;;;18.10;98.70;;;;;;5011093;28;20040;-67
2023/06/23 08:47:48;;;;;;;18.52;13.15;;;18.10;98.60;;;;;;5008218;28;20049;-65
2023/06/23 08:50:14;;;;;;;19.73;13.20;;;18.10;98.60;;;;;;5006352;28;20066;-65
2023/06/23 08:52:41;;;;;;;19.58;13.77;;;18.10;98.60;;;;;;5008372;28;20041;-65
2023/06/23 08:55:08;;;;;;;18.70;13.32;;;18.20;98.60;;;;;;5018737;28;20098;-65
2023/06/23 08:57:34;;;;;;;22.90;14.52;;;18.30;98.60;;;;;;5010606;28;20342;-65
2023/06/23 09:00:00;;;;;;;17.00;14.00;;;18.20;98.40;;;;;;5009540;28;20073;-65
2023/06/23 09:02:26;;;;;;;19.48;13.30;;;18.20;98.30;;;;;;5012778;28;20475;-66
2023/06/23 09:04:52;;;;;;;18.10;13.38;;;18.30;98.40;;;;;;5004394;28;20146;-65
2023/06/23 09:07:17;;;;;;;20.60;14.30;;;18.30;98.30;;;;;;5012663;28;20034;-65
2023/06/23 09:09:45;;;;;;;24.13;13.27;;;18.50;98.50;;;;;;5005413;28;20041;-70
2023/06/23 09:12:11;;;;;;;18.70;13.27;;;18.50;98.40;;;;;;5003161;28;20356;-65
2023/06/23 09:14:37;;;;;;;17.65;13.55;;;18.50;97.90;;;;;;5007845;28;20033;-68
2023/06/23 09:17:03;;;;;;;18.83;12.27;;;18.60;98.10;;;;;;5010786;28;20022;-66
2023/06/23 09:19:32;;;;;;;18.73;12.52;;;18.60;97.90;;;;;;5007908;28;20033;-65
2023/06/23 09:21:59;;;;;;;15.63;11.63;;;18.70;97.90;;;;;;5014390;28;20025;-65
2023/06/23 09:24:42;;;;;;;15.65;11.50;;;18.80;97.90;;;;;;5018748;28;20030;-65
2023/06/23 09:27:08;;;;;;;21.65;12.30;;;18.80;97.60;;;;;;5013440;28;20074;-66
2023/06/23 09:29:34;;;;;;;16.42;11.50;;;18.80;97.50;;;;;;5008906;28;20427;-66
2023/06/23 09:32:02;;;;;;;15.18;10.82;;;18.80;97.00;;;;;;5019480;28;20104;-66
2023/06/23 09:34:30;;;;;;;13.57;11.25;;;18.80;97.20;;;;;;5005705;28;20048;-65
2023/06/23 09:37:13;;;;;;;17.13;11.35;;;18.90;97.20;;;;;;5012665;28;20026;-66
2023/06/23 09:39:41;;;;;;;16.02;11.15;;;19.00;97.50;;;;;;5009412;28;20119;-65
2023/06/23 09:42:14;;;;;;;14.63;11.10;;;19.00;97.30;;;;;;5011025;28;20030;-66
2023/06/23 09:44:48;;;;;;;14.23;10.32;;;18.90;96.70;;;;;;5005091;28;20052;-66
2023/06/23 09:47:15;;;;;;;15.10;10.77;;;19.00;96.90;;;;;;5007399;28;20049;-68
2023/06/23 09:49:46;;;;;;;15.75;10.88;;;19.20;97.30;;;;;;5003333;28;20038;-70
2023/06/23 09:52:14;;;;;;;15.32;11.75;;;19.00;96.70;;;;;;5008022;28;20041;-71
2023/06/23 09:54:41;;;;;;;15.35;11.57;;;19.10;96.80;;;;;;4998472;28;20200;-65
2023/06/23 09:57:15;;;;;;;13.07;10.48;;;19.20;96.70;;;;;;5004735;28;20484;-65
2023/06/23 09:59:42;;;;;;;15.70;10.77;;;19.30;96.50;;;;;;5013448;28;20021;-66
2023/06/23 10:02:18;;;;;;;13.05;10.18;;;19.20;96.40;;;;;;5008879;28;20022;-65
2023/06/23 10:04:44;;;;;;;14.95;10.70;;;19.30;96.30;;;;;;5003908;28;20489;-65
2023/06/23 10:07:24;;;;;;;12.95;10.05;;;19.10;95.90;;;;;;4999926;28;20077;-66
2023/06/23 10:09:52;;;;;;;15.02;10.48;;;19.10;96.00;;;;;;5002325;28;20038;-65
2023/06/23 10:12:21;;;;;;;14.15;10.93;;;19.30;95.90;;;;;;5001419;28;20415;-66
2023/06/23 10:14:49;;;;;;;16.52;12.75;;;19.50;96.40;;;;;;5000773;28;20045;-67
2023/06/23 10:17:14;;;;;;;16.27;12.15;;;19.40;96.40;;;;;;5006444;28;20319;-65
2023/06/23 10:19:40;;;;;;;18.77;13.35;;;19.50;96.30;;;;;;5004481;28;20030;-69
2023/06/23 10:22:07;;;;;;;16.67;12.95;;;19.50;96.40;;;;;;5009841;28;20426;-68
2023/06/23 10:24:34;;;;;;;16.33;13.60;;;19.40;96.20;;;;;;5012065;28;20049;-65
2023/06/23 10:27:01;;;;;;;17.17;13.52;;;19.50;96.70;;;;;;5006602;28;20107;-65
2023/06/23 10:29:28;;;;;;;16.05;13.10;;;19.50;96.30;;;;;;5009047;28;20034;-65
2023/06/23 10:31:56;;;;;;;17.27;12.90;;;19.50;95.90;;;;;;5007988;28;20164;-67
2023/06/23 10:34:24;;;;;;;17.58;13.18;;;19.50;96.20;;;;;;5007523;28;20029;-65
2023/06/23 10:36:56;;;;;;;15.05;12.48;;;19.40;96.00;;;;;;4999986;28;20025;-65
2023/06/23 10:39:26;;;;;;;20.85;13.68;;;19.20;95.90;;;;;;5005871;28;20022;-64
2023/06/23 10:41:53;;;;;;;20.33;14.95;;;19.20;96.30;;;;;;4998935;28;20475;-65
2023/06/23 10:44:19;;;;;;;18.05;14.48;;;19.30;96.40;;;;;;4999491;28;20171;-68
2023/06/23 10:46:46;;;;;;;19.95;15.43;;;19.30;96.70;;;;;;5001923;28;20454;-65
2023/06/23 10:49:13;;;;;;;19.67;15.43;;;19.30;96.50;;;;;;5001807;28;20037;-64
2023/06/23 10:51:40;;;;;;;18.77;14.60;;;19.20;96.60;;;;;;5000707;28;20080;-65
2023/06/23 10:54:07;;;;;;;18.88;15.80;;;19.20;96.90;;;;;;5009754;28;20380;-65
2023/06/23 10:56:42;;;;;;;21.15;14.65;;;19.30;96.90;;;;;;5011769;28;20018;-65
2023/06/23 10:59:23;;;;;;;16.85;14.88;;;19.30;96.70;;;;;;4999327;28;20110;-65
2023/06/23 11:02:01;;;;;;;23.98;16.00;;;19.40;96.40;;;;;;5003321;28;20399;-64
2023/06/23 11:04:28;;;;;;;20.33;14.82;;;19.40;96.50;;;;;;5008906;28;20034;-65
2023/06/23 11:07:08;;;;;;;18.13;14.30;;;19.40;95.70;;;;;;5006424;28;20485;-65
2023/06/23 11:09:54;;;;;;;17.95;15.20;;;19.40;96.10;;;;;;5008341;28;20017;-65
2023/06/23 11:12:33;;;;;;;20.23;14.23;;;19.30;96.00;;;;;;4997412;28;20125;-65
2023/06/23 11:15:08;;;;;;;17.58;14.70;;;19.20;95.80;;;;;;5003165;28;20393;-66
2023/06/23 11:17:41;;;;;;;29.23;15.65;;;19.20;96.10;;;;;;4998902;28;20030;-67
2023/06/23 11:20:38;;;;;;;22.48;14.88;;;19.20;96.60;;;;;;5005130;28;20157;-67
2023/06/23 11:23:06;;;;;;;17.88;15.45;;;19.20;96.50;;;;;;5001101;28;20074;-65
2023/06/23 11:25:44;;;;;;;19.73;15.65;;;19.20;96.30;;;;;;5007321;28;20133;-65
2023/06/23 11:28:38;;;;;;;20.30;16.42;;;19.30;96.40;;;;;;5004541;28;20354;-65
2023/06/23 11:31:14;;;;;;;19.85;15.68;;;19.30;96.40;;;;;;5002863;28;20056;-67
2023/06/23 11:33:41;;;;;;;19.80;15.68;;;19.20;96.40;;;;;;5002616;28;20028;-67
2023/06/23 11:36:12;;;;;;;20.02;15.88;;;19.10;96.40;;;;;;5000686;28;20079;-66
2023/06/23 11:38:40;;;;;;;21.25;15.13;;;19.20;96.90;;;;;;5001060;28;20357;-66
2023/06/23 11:41:06;;;;;;;17.77;14.10;;;19.30;96.80;;;;;;5010685;28;20505;-66
2023/06/23 11:43:38;;;;;;;18.42;15.50;;;19.20;95.90;;;;;;5004736;28;20082;-66
2023/06/23 11:46:06;;;;;;;18.98;15.07;;;19.20;96.50;;;;;;5004989;28;20045;-66
2023/06/23 11:48:32;;;;;;;20.50;15.38;;;19.10;96.40;;;;;;5009386;28;20049;-66
2023/06/23 11:51:01;;;;;;;22.60;15.30;;;19.20;96.60;;;;;;5019493;28;20048;-66
2023/06/23 11:53:27;;;;;;;18.05;15.35;;;19.20;96.50;;;;;;5004306;28;20055;-70
2023/06/23 11:55:53;;;;;;;20.98;14.23;;;19.30;96.30;;;;;;5007415;28;20514;-66
2023/06/23 11:58:19;;;;;;;19.38;14.80;;;19.40;95.60;;;;;;5008257;28;20025;-66
2023/06/23 12:00:44;;;;;;;16.33;14.13;;;19.50;95.30;;;;;;5009002;28;20423;-66
2023/06/23 12:03:14;;;;;;;16.50;13.27;;;19.60;95.40;;;;;;5002493;28;20033;-68
2023/06/23 12:05:43;;;;;;;14.48;12.77;;;19.60;94.80;;;;;;5008410;28;20022;-67
2023/06/23 12:08:09;;;;;;;18.60;12.93;;;19.70;94.30;;;;;;5007392;28;20064;-67
2023/06/23 12:10:41;;;;;;;14.48;11.40;;;19.70;93.60;;;;;;5015654;28;20026;-71
2023/06/23 12:13:10;;;;;;;16.77;12.90;;;19.80;93.40;;;;;;5001238;28;20041;-70
2023/06/23 12:15:40;;;;;;;16.90;11.85;;;19.90;93.10;;;;;;5004874;28;20033;-66
2023/06/23 12:18:06;;;;;;;15.63;11.75;;;20.00;93.00;;;;;;5003911;28;20681;-66
2023/06/23 12:20:35;;;;;;;14.43;11.68;;;20.20;93.30;;;;;;5003563;28;20489;-64
2023/06/23 12:23:03;;;;;;;15.30;11.07;;;20.20;92.00;;;;;;5011355;28;20034;-65
2023/06/23 12:25:38;;;;;;;17.00;11.43;;;20.30;91.90;;;;;;5007519;28;20109;-73
2023/06/23 12:28:05;;;;;;;13.68;10.27;;;20.40;91.50;;;;;;5002448;28;20058;-65
2023/06/23 12:30:44;;;;;;;15.05;11.27;;;20.30;90.90;;;;;;5004709;28;20091;-72
2023/06/23 12:33:23;;;;;;;12.68;10.13;;;20.20;91.40;;;;;;5013908;28;20041;-66
2023/06/23 12:36:03;;;;;;;15.23;10.70;;;20.10;91.20;;;;;;5001995;28;20041;-66
2023/06/23 12:38:34;;;;;;;14.55;10.80;;;20.30;91.00;;;;;;5009708;28;20046;-66
2023/06/23 12:41:19;;;;;;;15.70;11.80;;;20.50;90.80;;;;;;5005016;28;20013;-65
2023/06/23 12:43:48;;;;;;;14.30;11.32;;;20.70;90.90;;;;;;5002742;28;20440;-71